sensor_id;sensor_type;location;lat;lon;timestamp;P1;durP1;ratioP1;P2;durP2;ratioP2
5937;SDS011;2994;51.220;4.412;2023-05-16T00:00:12;9.90;;;3.20;;
5937;SDS011;2994;51.220;4.412;2023-05-16T00:02:38;6.20;;;2.50;;
5937;SDS011;2994;51.220;4.412;2023-05-16T00:05:04;7.13;;;2.73;;
5937;SDS011;2994;51.220;4.412;2023-05-16T00:07:32;3.57;;;3.13;;
5937;SDS011;2994;51.220;4.412;2023-05-16T00:09:58;7.77;;;3.00;;
5937;SDS011;2994;51.220;4.412;2023-05-16T00:12:24;8.20;;;3.47;;
5937;SDS011;2994;51.220;4.412;2023-05-16T00:14:50;6.93;;;2.40;;
5937;SDS011;2994;51.220;4.412;2023-05-16T00:17:16;6.07;;;3.17;;
5937;SDS011;2994;51.220;4.412;2023-05-16T00:19:44;5.10;;;3.30;;
5937;SDS011;2994;51.220;4.412;2023-05-16T00:22:16;7.67;;;4.33;;
5937;SDS011;2994;51.220;4.412;2023-05-16T00:24:41;7.90;;;3.20;;
5937;SDS011;2994;51.220;4.412;2023-05-16T00:27:07;8.73;;;3.10;;
5937;SDS011;2994;51.220;4.412;2023-05-16T00:29:35;6.13;;;2.53;;
5937;SDS011;2994;51.220;4.412;2023-05-16T00:32:00;7.67;;;3.40;;
5937;SDS011;2994;51.220;4.412;2023-05-16T00:34:26;5.20;;;2.30;;
5937;SDS011;2994;51.220;4.412;2023-05-16T00:36:52;6.93;;;3.00;;
5937;SDS011;2994;51.220;4.412;2023-05-16T00:39:17;4.17;;;2.60;;
5937;SDS011;2994;51.220;4.412;2023-05-16T00:41:43;10.97;;;2.93;;
5937;SDS011;2994;51.220;4.412;2023-05-16T00:44:09;9.47;;;3.80;;
5937;SDS011;2994;51.220;4.412;2023-05-16T00:46:35;6.73;;;2.87;;
5937;SDS011;2994;51.220;4.412;2023-05-16T00:49:01;7.57;;;2.70;;
5937;SDS011;2994;51.220;4.412;2023-05-16T00:51:27;7.00;;;3.07;;
5937;SDS011;2994;51.220;4.412;2023-05-16T00:53:53;9.63;;;2.77;;
5937;SDS011;2994;51.220;4.412;2023-05-16T00:56:20;6.23;;;2.80;;
5937;SDS011;2994;51.220;4.412;2023-05-16T00:58:46;7.20;;;2.90;;
5937;SDS011;2994;51.220;4.412;2023-05-16T01:01:12;7.03;;;2.50;;
5937;SDS011;2994;51.220;4.412;2023-05-16T01:03:38;4.53;;;2.20;;
5937;SDS011;2994;51.220;4.412;2023-05-16T01:06:03;6.00;;;3.10;;
5937;SDS011;2994;51.220;4.412;2023-05-16T01:08:30;6.07;;;2.63;;
5937;SDS011;2994;51.220;4.412;2023-05-16T01:16:34;6.47;;;2.40;;
5937;SDS011;2994;51.220;4.412;2023-05-16T01:20:07;5.43;;;2.60;;
5937;SDS011;2994;51.220;4.412;2023-05-16T01:22:02;7.00;;;2.20;;
5937;SDS011;2994;51.220;4.412;2023-05-16T01:24:46;7.30;;;2.60;;
5937;SDS011;2994;51.220;4.412;2023-05-16T01:27:19;6.70;;;2.87;;
5937;SDS011;2994;51.220;4.412;2023-05-16T01:29:47;7.33;;;3.33;;
5937;SDS011;2994;51.220;4.412;2023-05-16T01:32:13;5.80;;;2.67;;
5937;SDS011;2994;51.220;4.412;2023-05-16T01:34:38;10.93;;;3.40;;
5937;SDS011;2994;51.220;4.412;2023-05-16T01:40:02;5.33;;;3.50;;
5937;SDS011;2994;51.220;4.412;2023-05-16T01:42:34;8.70;;;3.30;;
5937;SDS011;2994;51.220;4.412;2023-05-16T01:50:53;7.87;;;3.37;;
5937;SDS011;2994;51.220;4.412;2023-05-16T01:53:23;8.83;;;3.57;;
5937;SDS011;2994;51.220;4.412;2023-05-16T01:55:52;5.17;;;3.07;;
5937;SDS011;2994;51.220;4.412;2023-05-16T01:58:21;3.70;;;2.33;;
5937;SDS011;2994;51.220;4.412;2023-05-16T02:00:51;5.60;;;2.93;;
5937;SDS011;2994;51.220;4.412;2023-05-16T02:03:17;9.10;;;2.70;;
5937;SDS011;2994;51.220;4.412;2023-05-16T02:05:43;6.17;;;3.37;;
5937;SDS011;2994;51.220;4.412;2023-05-16T02:08:08;6.40;;;2.70;;
5937;SDS011;2994;51.220;4.412;2023-05-16T02:10:34;10.20;;;3.77;;
5937;SDS011;2994;51.220;4.412;2023-05-16T02:12:59;6.00;;;3.10;;
5937;SDS011;2994;51.220;4.412;2023-05-16T02:15:25;8.90;;;3.90;;
5937;SDS011;2994;51.220;4.412;2023-05-16T02:17:50;6.37;;;3.30;;
5937;SDS011;2994;51.220;4.412;2023-05-16T02:20:16;11.47;;;3.03;;
5937;SDS011;2994;51.220;4.412;2023-05-16T02:22:41;7.90;;;3.00;;
5937;SDS011;2994;51.220;4.412;2023-05-16T02:25:08;8.07;;;2.60;;
5937;SDS011;2994;51.220;4.412;2023-05-16T02:27:34;9.10;;;3.50;;
5937;SDS011;2994;51.220;4.412;2023-05-16T02:30:00;5.70;;;3.10;;
5937;SDS011;2994;51.220;4.412;2023-05-16T02:32:25;7.90;;;2.90;;
5937;SDS011;2994;51.220;4.412;2023-05-16T02:34:51;8.50;;;3.03;;
5937;SDS011;2994;51.220;4.412;2023-05-16T02:37:17;8.97;;;3.30;;
5937;SDS011;2994;51.220;4.412;2023-05-16T02:39:42;4.90;;;2.60;;
5937;SDS011;2994;51.220;4.412;2023-05-16T02:42:08;7.30;;;2.33;;
5937;SDS011;2994;51.220;4.412;2023-05-16T02:44:34;8.57;;;3.40;;
5937;SDS011;2994;51.220;4.412;2023-05-16T02:46:59;7.27;;;3.27;;
5937;SDS011;2994;51.220;4.412;2023-05-16T02:49:25;7.67;;;2.90;;
5937;SDS011;2994;51.220;4.412;2023-05-16T02:51:53;5.73;;;3.00;;
5937;SDS011;2994;51.220;4.412;2023-05-16T02:54:18;6.50;;;2.80;;
5937;SDS011;2994;51.220;4.412;2023-05-16T02:56:45;6.87;;;2.80;;
5937;SDS011;2994;51.220;4.412;2023-05-16T02:59:10;6.47;;;2.90;;
5937;SDS011;2994;51.220;4.412;2023-05-16T03:01:36;6.73;;;2.90;;
5937;SDS011;2994;51.220;4.412;2023-05-16T03:04:01;4.87;;;2.20;;
5937;SDS011;2994;51.220;4.412;2023-05-16T03:06:27;6.00;;;2.20;;
5937;SDS011;2994;51.220;4.412;2023-05-16T03:08:54;6.40;;;2.37;;
5937;SDS011;2994;51.220;4.412;2023-05-16T03:11:19;6.53;;;2.90;;
5937;SDS011;2994;51.220;4.412;2023-05-16T03:13:46;4.33;;;2.60;;
5937;SDS011;2994;51.220;4.412;2023-05-16T03:16:11;6.30;;;2.50;;
5937;SDS011;2994;51.220;4.412;2023-05-16T03:18:37;6.93;;;3.43;;
5937;SDS011;2994;51.220;4.412;2023-05-16T03:21:02;7.90;;;3.20;;
5937;SDS011;2994;51.220;4.412;2023-05-16T03:23:28;6.70;;;3.20;;
5937;SDS011;2994;51.220;4.412;2023-05-16T03:25:56;7.90;;;2.93;;
5937;SDS011;2994;51.220;4.412;2023-05-16T03:28:21;6.90;;;3.17;;
5937;SDS011;2994;51.220;4.412;2023-05-16T03:30:47;4.93;;;3.70;;
5937;SDS011;2994;51.220;4.412;2023-05-16T03:33:12;5.03;;;2.23;;
5937;SDS011;2994;51.220;4.412;2023-05-16T03:35:38;4.10;;;2.30;;
5937;SDS011;2994;51.220;4.412;2023-05-16T03:38:04;4.70;;;2.10;;
5937;SDS011;2994;51.220;4.412;2023-05-16T03:40:29;5.80;;;2.40;;
5937;SDS011;2994;51.220;4.412;2023-05-16T03:42:55;7.73;;;2.40;;
5937;SDS011;2994;51.220;4.412;2023-05-16T03:45:20;5.27;;;3.37;;
5937;SDS011;2994;51.220;4.412;2023-05-16T03:47:47;4.63;;;2.73;;
5937;SDS011;2994;51.220;4.412;2023-05-16T03:50:13;5.60;;;2.13;;
5937;SDS011;2994;51.220;4.412;2023-05-16T03:52:39;11.40;;;3.43;;
5937;SDS011;2994;51.220;4.412;2023-05-16T03:55:05;5.90;;;2.87;;
5937;SDS011;2994;51.220;4.412;2023-05-16T03:57:31;4.90;;;2.00;;
5937;SDS011;2994;51.220;4.412;2023-05-16T03:59:57;7.27;;;2.90;;
5937;SDS011;2994;51.220;4.412;2023-05-16T04:02:23;4.70;;;2.50;;
5937;SDS011;2994;51.220;4.412;2023-05-16T04:04:49;4.57;;;2.67;;
5937;SDS011;2994;51.220;4.412;2023-05-16T04:07:15;4.53;;;2.90;;
5937;SDS011;2994;51.220;4.412;2023-05-16T04:09:40;5.20;;;2.57;;
5937;SDS011;2994;51.220;4.412;2023-05-16T04:12:06;5.07;;;2.20;;
5937;SDS011;2994;51.220;4.412;2023-05-16T04:14:32;8.10;;;2.90;;
5937;SDS011;2994;51.220;4.412;2023-05-16T04:16:58;4.37;;;2.00;;
5937;SDS011;2994;51.220;4.412;2023-05-16T04:19:24;5.67;;;2.40;;
5937;SDS011;2994;51.220;4.412;2023-05-16T04:21:49;4.63;;;2.40;;
5937;SDS011;2994;51.220;4.412;2023-05-16T04:24:16;4.70;;;2.70;;
5937;SDS011;2994;51.220;4.412;2023-05-16T04:26:41;4.50;;;2.60;;
5937;SDS011;2994;51.220;4.412;2023-05-16T04:29:06;4.97;;;2.70;;
5937;SDS011;2994;51.220;4.412;2023-05-16T04:31:32;6.83;;;2.20;;
5937;SDS011;2994;51.220;4.412;2023-05-16T04:33:58;3.87;;;2.60;;
5937;SDS011;2994;51.220;4.412;2023-05-16T04:36:23;3.60;;;2.00;;
5937;SDS011;2994;51.220;4.412;2023-05-16T04:38:49;3.93;;;2.10;;
5937;SDS011;2994;51.220;4.412;2023-05-16T04:41:14;5.23;;;2.40;;
5937;SDS011;2994;51.220;4.412;2023-05-16T04:43:40;6.73;;;2.53;;
5937;SDS011;2994;51.220;4.412;2023-05-16T04:46:06;3.30;;;1.80;;
5937;SDS011;2994;51.220;4.412;2023-05-16T04:48:32;5.50;;;2.40;;
5937;SDS011;2994;51.220;4.412;2023-05-16T04:50:58;4.47;;;2.40;;
5937;SDS011;2994;51.220;4.412;2023-05-16T04:53:23;4.97;;;1.90;;
5937;SDS011;2994;51.220;4.412;2023-05-16T04:55:49;7.03;;;2.13;;
5937;SDS011;2994;51.220;4.412;2023-05-16T04:58:15;6.30;;;2.70;;
5937;SDS011;2994;51.220;4.412;2023-05-16T05:00:40;2.77;;;2.33;;
5937;SDS011;2994;51.220;4.412;2023-05-16T05:03:06;5.80;;;2.63;;
5937;SDS011;2994;51.220;4.412;2023-05-16T05:05:32;5.80;;;2.53;;
5937;SDS011;2994;51.220;4.412;2023-05-16T05:07:57;4.33;;;2.60;;
5937;SDS011;2994;51.220;4.412;2023-05-16T05:10:23;6.27;;;2.60;;
5937;SDS011;2994;51.220;4.412;2023-05-16T05:12:49;8.40;;;3.23;;
5937;SDS011;2994;51.220;4.412;2023-05-16T05:15:14;5.00;;;2.53;;
5937;SDS011;2994;51.220;4.412;2023-05-16T05:17:40;3.80;;;2.57;;
5937;SDS011;2994;51.220;4.412;2023-05-16T05:20:06;4.93;;;2.90;;
5937;SDS011;2994;51.220;4.412;2023-05-16T05:22:32;4.10;;;2.33;;
5937;SDS011;2994;51.220;4.412;2023-05-16T05:24:58;5.67;;;2.50;;
5937;SDS011;2994;51.220;4.412;2023-05-16T05:27:23;4.90;;;2.87;;
5937;SDS011;2994;51.220;4.412;2023-05-16T05:29:49;11.40;;;3.33;;
5937;SDS011;2994;51.220;4.412;2023-05-16T05:32:14;6.37;;;3.00;;
5937;SDS011;2994;51.220;4.412;2023-05-16T05:34:40;8.70;;;2.60;;
5937;SDS011;2994;51.220;4.412;2023-05-16T05:37:05;5.90;;;2.90;;
5937;SDS011;2994;51.220;4.412;2023-05-16T05:39:31;5.60;;;2.77;;
5937;SDS011;2994;51.220;4.412;2023-05-16T05:41:56;6.37;;;2.80;;
5937;SDS011;2994;51.220;4.412;2023-05-16T05:44:22;10.20;;;3.40;;
5937;SDS011;2994;51.220;4.412;2023-05-16T05:46:48;6.70;;;3.77;;
5937;SDS011;2994;51.220;4.412;2023-05-16T05:49:13;6.40;;;3.53;;
5937;SDS011;2994;51.220;4.412;2023-05-16T05:51:39;9.47;;;3.00;;
5937;SDS011;2994;51.220;4.412;2023-05-16T05:54:04;7.73;;;3.20;;
5937;SDS011;2994;51.220;4.412;2023-05-16T05:56:30;5.80;;;2.40;;
5937;SDS011;2994;51.220;4.412;2023-05-16T05:58:55;3.83;;;2.37;;
5937;SDS011;2994;51.220;4.412;2023-05-16T06:01:21;4.07;;;1.70;;
5937;SDS011;2994;51.220;4.412;2023-05-16T06:03:46;8.17;;;3.00;;
5937;SDS011;2994;51.220;4.412;2023-05-16T06:06:12;3.70;;;2.60;;
5937;SDS011;2994;51.220;4.412;2023-05-16T06:08:39;4.67;;;2.10;;
5937;SDS011;2994;51.220;4.412;2023-05-16T06:11:04;3.23;;;2.70;;
5937;SDS011;2994;51.220;4.412;2023-05-16T06:13:30;5.17;;;2.23;;
5937;SDS011;2994;51.220;4.412;2023-05-16T06:15:56;4.00;;;2.40;;
5937;SDS011;2994;51.220;4.412;2023-05-16T06:18:21;5.60;;;2.50;;
5937;SDS011;2994;51.220;4.412;2023-05-16T06:20:46;4.20;;;2.13;;
5937;SDS011;2994;51.220;4.412;2023-05-16T06:23:12;5.50;;;2.10;;
5937;SDS011;2994;51.220;4.412;2023-05-16T06:25:37;4.53;;;2.03;;
5937;SDS011;2994;51.220;4.412;2023-05-16T06:28:03;3.20;;;2.53;;
5937;SDS011;2994;51.220;4.412;2023-05-16T06:30:29;3.27;;;2.07;;
5937;SDS011;2994;51.220;4.412;2023-05-16T06:32:54;7.13;;;2.13;;
5937;SDS011;2994;51.220;4.412;2023-05-16T06:35:20;9.13;;;2.70;;
5937;SDS011;2994;51.220;4.412;2023-05-16T06:37:45;5.37;;;2.20;;
5937;SDS011;2994;51.220;4.412;2023-05-16T06:40:11;7.70;;;2.90;;
5937;SDS011;2994;51.220;4.412;2023-05-16T06:42:37;8.60;;;2.43;;
5937;SDS011;2994;51.220;4.412;2023-05-16T06:45:02;4.60;;;1.90;;
5937;SDS011;2994;51.220;4.412;2023-05-16T06:47:28;3.47;;;2.27;;
5937;SDS011;2994;51.220;4.412;2023-05-16T06:49:53;4.00;;;2.17;;
5937;SDS011;2994;51.220;4.412;2023-05-16T06:52:19;6.10;;;2.70;;
5937;SDS011;2994;51.220;4.412;2023-05-16T06:54:45;3.50;;;2.03;;
5937;SDS011;2994;51.220;4.412;2023-05-16T06:57:11;8.17;;;3.10;;
5937;SDS011;2994;51.220;4.412;2023-05-16T06:59:37;3.73;;;2.27;;
5937;SDS011;2994;51.220;4.412;2023-05-16T07:02:03;4.87;;;2.17;;
5937;SDS011;2994;51.220;4.412;2023-05-16T07:04:28;3.77;;;2.27;;
5937;SDS011;2994;51.220;4.412;2023-05-16T07:06:54;4.87;;;1.90;;
5937;SDS011;2994;51.220;4.412;2023-05-16T07:09:20;6.43;;;1.80;;
5937;SDS011;2994;51.220;4.412;2023-05-16T07:11:45;3.70;;;1.93;;
5937;SDS011;2994;51.220;4.412;2023-05-16T07:14:10;6.07;;;2.70;;
5937;SDS011;2994;51.220;4.412;2023-05-16T07:16:36;4.30;;;2.17;;
5937;SDS011;2994;51.220;4.412;2023-05-16T07:19:02;2.70;;;2.13;;
5937;SDS011;2994;51.220;4.412;2023-05-16T07:21:27;3.80;;;1.73;;
5937;SDS011;2994;51.220;4.412;2023-05-16T07:23:53;8.07;;;2.33;;
5937;SDS011;2994;51.220;4.412;2023-05-16T07:26:18;9.43;;;2.80;;
5937;SDS011;2994;51.220;4.412;2023-05-16T07:28:47;6.07;;;2.33;;
5937;SDS011;2994;51.220;4.412;2023-05-16T07:31:13;5.17;;;2.33;;
5937;SDS011;2994;51.220;4.412;2023-05-16T07:33:39;5.40;;;1.83;;
5937;SDS011;2994;51.220;4.412;2023-05-16T07:36:04;10.00;;;2.80;;
5937;SDS011;2994;51.220;4.412;2023-05-16T07:38:33;3.17;;;1.73;;
5937;SDS011;2994;51.220;4.412;2023-05-16T07:40:59;3.73;;;2.00;;
5937;SDS011;2994;51.220;4.412;2023-05-16T07:43:25;2.57;;;1.60;;
5937;SDS011;2994;51.220;4.412;2023-05-16T07:45:50;2.93;;;1.60;;
5937;SDS011;2994;51.220;4.412;2023-05-16T07:48:16;3.43;;;1.70;;
5937;SDS011;2994;51.220;4.412;2023-05-16T07:50:42;6.90;;;1.73;;
5937;SDS011;2994;51.220;4.412;2023-05-16T07:53:07;4.00;;;1.73;;
5937;SDS011;2994;51.220;4.412;2023-05-16T07:55:33;6.73;;;1.80;;
5937;SDS011;2994;51.220;4.412;2023-05-16T07:57:59;5.00;;;1.80;;
5937;SDS011;2994;51.220;4.412;2023-05-16T08:00:24;3.60;;;1.53;;
5937;SDS011;2994;51.220;4.412;2023-05-16T08:02:50;3.73;;;1.77;;
5937;SDS011;2994;51.220;4.412;2023-05-16T08:05:15;4.70;;;1.87;;
5937;SDS011;2994;51.220;4.412;2023-05-16T08:07:41;3.17;;;1.47;;
5937;SDS011;2994;51.220;4.412;2023-05-16T08:10:07;1.90;;;1.50;;
5937;SDS011;2994;51.220;4.412;2023-05-16T08:12:32;6.00;;;2.63;;
5937;SDS011;2994;51.220;4.412;2023-05-16T08:14:58;2.43;;;1.77;;
5937;SDS011;2994;51.220;4.412;2023-05-16T08:17:23;8.43;;;2.20;;
5937;SDS011;2994;51.220;4.412;2023-05-16T08:19:49;6.93;;;2.10;;
5937;SDS011;2994;51.220;4.412;2023-05-16T08:22:14;3.53;;;1.70;;
5937;SDS011;2994;51.220;4.412;2023-05-16T08:24:40;3.97;;;1.50;;
5937;SDS011;2994;51.220;4.412;2023-05-16T08:27:05;3.90;;;1.30;;
5937;SDS011;2994;51.220;4.412;2023-05-16T08:29:31;3.73;;;2.10;;
5937;SDS011;2994;51.220;4.412;2023-05-16T08:31:56;2.40;;;1.40;;
5937;SDS011;2994;51.220;4.412;2023-05-16T08:34:22;4.00;;;2.13;;
5937;SDS011;2994;51.220;4.412;2023-05-16T08:36:48;2.20;;;1.63;;
5937;SDS011;2994;51.220;4.412;2023-05-16T08:39:13;7.17;;;2.27;;
5937;SDS011;2994;51.220;4.412;2023-05-16T08:41:39;3.77;;;1.80;;
5937;SDS011;2994;51.220;4.412;2023-05-16T08:44:04;5.40;;;2.23;;
5937;SDS011;2994;51.220;4.412;2023-05-16T08:46:30;5.97;;;2.00;;
5937;SDS011;2994;51.220;4.412;2023-05-16T08:48:59;4.10;;;1.90;;
5937;SDS011;2994;51.220;4.412;2023-05-16T08:51:26;3.47;;;2.10;;
5937;SDS011;2994;51.220;4.412;2023-05-16T08:54:05;3.50;;;1.73;;
5937;SDS011;2994;51.220;4.412;2023-05-16T08:56:33;4.03;;;2.17;;
5937;SDS011;2994;51.220;4.412;2023-05-16T08:59:00;4.47;;;1.67;;
5937;SDS011;2994;51.220;4.412;2023-05-16T09:01:26;8.33;;;1.77;;
5937;SDS011;2994;51.220;4.412;2023-05-16T09:03:52;3.43;;;1.40;;
5937;SDS011;2994;51.220;4.412;2023-05-16T09:06:18;2.47;;;1.40;;
5937;SDS011;2994;51.220;4.412;2023-05-16T09:08:44;2.07;;;1.37;;
5937;SDS011;2994;51.220;4.412;2023-05-16T09:11:13;3.07;;;1.47;;
5937;SDS011;2994;51.220;4.412;2023-05-16T09:13:38;2.50;;;1.10;;
5937;SDS011;2994;51.220;4.412;2023-05-16T09:16:17;2.90;;;1.50;;
5937;SDS011;2994;51.220;4.412;2023-05-16T09:18:45;4.43;;;1.67;;
5937;SDS011;2994;51.220;4.412;2023-05-16T09:21:16;3.90;;;1.80;;
5937;SDS011;2994;51.220;4.412;2023-05-16T09:23:43;3.63;;;1.80;;
5937;SDS011;2994;51.220;4.412;2023-05-16T09:26:08;4.13;;;1.70;;
5937;SDS011;2994;51.220;4.412;2023-05-16T09:28:37;2.30;;;1.63;;
5937;SDS011;2994;51.220;4.412;2023-05-16T09:31:04;2.90;;;1.70;;
5937;SDS011;2994;51.220;4.412;2023-05-16T09:33:56;4.50;;;1.30;;
5937;SDS011;2994;51.220;4.412;2023-05-16T09:36:21;2.40;;;1.67;;
5937;SDS011;2994;51.220;4.412;2023-05-16T09:38:48;4.73;;;1.50;;
5937;SDS011;2994;51.220;4.412;2023-05-16T09:41:15;1.50;;;1.00;;
5937;SDS011;2994;51.220;4.412;2023-05-16T09:43:42;4.93;;;2.03;;
5937;SDS011;2994;51.220;4.412;2023-05-16T09:46:12;3.63;;;1.40;;
5937;SDS011;2994;51.220;4.412;2023-05-16T09:48:45;5.60;;;2.20;;
5937;SDS011;2994;51.220;4.412;2023-05-16T09:51:12;4.90;;;1.60;;
5937;SDS011;2994;51.220;4.412;2023-05-16T09:53:38;2.30;;;1.30;;
5937;SDS011;2994;51.220;4.412;2023-05-16T09:56:06;4.80;;;1.70;;
5937;SDS011;2994;51.220;4.412;2023-05-16T09:58:36;5.47;;;1.70;;
5937;SDS011;2994;51.220;4.412;2023-05-16T10:01:03;2.87;;;1.87;;
5937;SDS011;2994;51.220;4.412;2023-05-16T10:03:29;3.10;;;1.70;;
5937;SDS011;2994;51.220;4.412;2023-05-16T10:05:56;3.43;;;1.70;;
5937;SDS011;2994;51.220;4.412;2023-05-16T10:08:23;3.00;;;1.20;;
5937;SDS011;2994;51.220;4.412;2023-05-16T10:10:51;4.20;;;1.53;;
5937;SDS011;2994;51.220;4.412;2023-05-16T10:13:21;3.83;;;1.60;;
5937;SDS011;2994;51.220;4.412;2023-05-16T10:15:48;5.33;;;1.70;;
5937;SDS011;2994;51.220;4.412;2023-05-16T10:18:16;3.97;;;1.80;;
5937;SDS011;2994;51.220;4.412;2023-05-16T10:20:43;5.90;;;1.30;;
5937;SDS011;2994;51.220;4.412;2023-05-16T10:23:12;2.90;;;1.57;;
5937;SDS011;2994;51.220;4.412;2023-05-16T10:25:42;3.60;;;1.73;;
5937;SDS011;2994;51.220;4.412;2023-05-16T10:28:09;4.40;;;1.80;;
5937;SDS011;2994;51.220;4.412;2023-05-16T10:30:35;2.83;;;1.40;;
5937;SDS011;2994;51.220;4.412;2023-05-16T10:33:04;1.97;;;1.47;;
5937;SDS011;2994;51.220;4.412;2023-05-16T10:35:30;4.40;;;2.07;;
5937;SDS011;2994;51.220;4.412;2023-05-16T10:37:56;2.67;;;1.27;;
5937;SDS011;2994;51.220;4.412;2023-05-16T10:40:23;3.60;;;1.63;;
5937;SDS011;2994;51.220;4.412;2023-05-16T10:42:58;6.93;;;1.80;;
5937;SDS011;2994;51.220;4.412;2023-05-16T10:45:25;2.40;;;1.40;;
5937;SDS011;2994;51.220;4.412;2023-05-16T10:48:09;2.63;;;1.20;;
5937;SDS011;2994;51.220;4.412;2023-05-16T10:53:21;3.70;;;1.30;;
5937;SDS011;2994;51.220;4.412;2023-05-16T11:06:21;2.03;;;1.10;;
5937;SDS011;2994;51.220;4.412;2023-05-16T11:17:07;2.87;;;1.40;;
5937;SDS011;2994;51.220;4.412;2023-05-16T11:19:41;2.17;;;1.40;;
5937;SDS011;2994;51.220;4.412;2023-05-16T11:27:18;4.87;;;1.43;;
5937;SDS011;2994;51.220;4.412;2023-05-16T11:29:45;2.00;;;1.17;;
5937;SDS011;2994;51.220;4.412;2023-05-16T11:32:11;4.03;;;1.50;;
5937;SDS011;2994;51.220;4.412;2023-05-16T11:34:36;4.10;;;1.47;;
5937;SDS011;2994;51.220;4.412;2023-05-16T11:37:03;8.40;;;1.90;;
5937;SDS011;2994;51.220;4.412;2023-05-16T11:39:30;8.20;;;1.80;;
5937;SDS011;2994;51.220;4.412;2023-05-16T11:41:56;2.93;;;2.07;;
5937;SDS011;2994;51.220;4.412;2023-05-16T11:44:21;4.30;;;1.20;;
5937;SDS011;2994;51.220;4.412;2023-05-16T11:46:47;3.40;;;1.50;;
5937;SDS011;2994;51.220;4.412;2023-05-16T11:49:12;3.80;;;1.90;;
5937;SDS011;2994;51.220;4.412;2023-05-16T11:51:38;5.50;;;1.33;;
5937;SDS011;2994;51.220;4.412;2023-05-16T11:54:05;4.20;;;1.40;;
5937;SDS011;2994;51.220;4.412;2023-05-16T11:56:31;2.90;;;1.43;;
5937;SDS011;2994;51.220;4.412;2023-05-16T11:58:59;3.00;;;1.40;;
5937;SDS011;2994;51.220;4.412;2023-05-16T12:01:30;2.60;;;1.67;;
5937;SDS011;2994;51.220;4.412;2023-05-16T12:04:00;2.37;;;1.67;;
5937;SDS011;2994;51.220;4.412;2023-05-16T12:06:25;3.40;;;1.93;;
5937;SDS011;2994;51.220;4.412;2023-05-16T12:08:53;3.93;;;1.33;;
5937;SDS011;2994;51.220;4.412;2023-05-16T12:11:19;4.37;;;1.33;;
5937;SDS011;2994;51.220;4.412;2023-05-16T12:13:49;2.20;;;1.13;;
5937;SDS011;2994;51.220;4.412;2023-05-16T12:16:15;4.33;;;1.57;;
5937;SDS011;2994;51.220;4.412;2023-05-16T12:18:40;2.70;;;2.00;;
5937;SDS011;2994;51.220;4.412;2023-05-16T12:21:17;3.10;;;1.67;;
5937;SDS011;2994;51.220;4.412;2023-05-16T12:24:04;1.93;;;1.10;;
5937;SDS011;2994;51.220;4.412;2023-05-16T12:26:48;3.20;;;1.43;;
5937;SDS011;2994;51.220;4.412;2023-05-16T12:29:37;4.20;;;1.80;;
5937;SDS011;2994;51.220;4.412;2023-05-16T12:32:03;6.40;;;1.20;;
5937;SDS011;2994;51.220;4.412;2023-05-16T12:34:32;5.13;;;1.80;;
5937;SDS011;2994;51.220;4.412;2023-05-16T12:36:57;4.60;;;1.67;;
5937;SDS011;2994;51.220;4.412;2023-05-16T12:39:23;4.33;;;1.23;;
5937;SDS011;2994;51.220;4.412;2023-05-16T12:41:49;5.97;;;1.70;;
5937;SDS011;2994;51.220;4.412;2023-05-16T12:44:15;3.30;;;1.90;;
5937;SDS011;2994;51.220;4.412;2023-05-16T12:46:43;1.97;;;1.23;;
5937;SDS011;2994;51.220;4.412;2023-05-16T12:49:10;3.53;;;1.43;;
5937;SDS011;2994;51.220;4.412;2023-05-16T12:51:36;2.93;;;1.30;;
5937;SDS011;2994;51.220;4.412;2023-05-16T12:54:09;2.30;;;1.30;;
5937;SDS011;2994;51.220;4.412;2023-05-16T12:56:36;3.73;;;1.47;;
5937;SDS011;2994;51.220;4.412;2023-05-16T12:59:05;2.50;;;1.73;;
5937;SDS011;2994;51.220;4.412;2023-05-16T13:01:31;4.07;;;1.30;;
5937;SDS011;2994;51.220;4.412;2023-05-16T13:03:57;2.33;;;1.40;;
5937;SDS011;2994;51.220;4.412;2023-05-16T13:06:23;5.03;;;1.57;;
5937;SDS011;2994;51.220;4.412;2023-05-16T13:08:48;3.00;;;1.80;;
5937;SDS011;2994;51.220;4.412;2023-05-16T13:11:14;3.43;;;1.30;;
5937;SDS011;2994;51.220;4.412;2023-05-16T13:13:39;3.33;;;1.50;;
5937;SDS011;2994;51.220;4.412;2023-05-16T13:16:05;3.83;;;1.60;;
5937;SDS011;2994;51.220;4.412;2023-05-16T13:18:30;4.33;;;1.40;;
5937;SDS011;2994;51.220;4.412;2023-05-16T13:20:56;5.97;;;1.40;;
5937;SDS011;2994;51.220;4.412;2023-05-16T13:23:21;4.10;;;1.63;;
5937;SDS011;2994;51.220;4.412;2023-05-16T13:25:47;3.47;;;1.60;;
5937;SDS011;2994;51.220;4.412;2023-05-16T13:28:12;4.20;;;1.80;;
5937;SDS011;2994;51.220;4.412;2023-05-16T13:30:38;5.23;;;1.70;;
5937;SDS011;2994;51.220;4.412;2023-05-16T13:33:03;3.10;;;1.40;;
5937;SDS011;2994;51.220;4.412;2023-05-16T13:35:29;2.80;;;1.67;;
5937;SDS011;2994;51.220;4.412;2023-05-16T13:37:54;3.70;;;1.60;;
5937;SDS011;2994;51.220;4.412;2023-05-16T13:40:20;7.10;;;1.70;;
5937;SDS011;2994;51.220;4.412;2023-05-16T13:42:45;1.80;;;1.50;;
5937;SDS011;2994;51.220;4.412;2023-05-16T13:45:11;3.70;;;1.30;;
5937;SDS011;2994;51.220;4.412;2023-05-16T13:47:37;2.17;;;1.43;;
5937;SDS011;2994;51.220;4.412;2023-05-16T13:50:02;1.70;;;1.20;;
5937;SDS011;2994;51.220;4.412;2023-05-16T13:52:33;3.40;;;1.17;;
5937;SDS011;2994;51.220;4.412;2023-05-16T13:54:58;5.00;;;1.80;;
5937;SDS011;2994;51.220;4.412;2023-05-16T13:57:24;2.40;;;1.53;;
5937;SDS011;2994;51.220;4.412;2023-05-16T13:59:51;3.20;;;1.20;;
5937;SDS011;2994;51.220;4.412;2023-05-16T14:02:17;5.73;;;1.60;;
5937;SDS011;2994;51.220;4.412;2023-05-16T14:04:42;4.00;;;1.80;;
5937;SDS011;2994;51.220;4.412;2023-05-16T14:07:08;2.80;;;1.43;;
5937;SDS011;2994;51.220;4.412;2023-05-16T14:09:33;2.90;;;1.37;;
5937;SDS011;2994;51.220;4.412;2023-05-16T14:12:01;2.17;;;0.97;;
5937;SDS011;2994;51.220;4.412;2023-05-16T14:14:29;3.53;;;1.50;;
5937;SDS011;2994;51.220;4.412;2023-05-16T14:16:54;2.10;;;1.27;;
5937;SDS011;2994;51.220;4.412;2023-05-16T14:19:20;1.47;;;1.07;;
5937;SDS011;2994;51.220;4.412;2023-05-16T14:21:45;1.20;;;0.90;;
5937;SDS011;2994;51.220;4.412;2023-05-16T14:24:11;2.77;;;1.30;;
5937;SDS011;2994;51.220;4.412;2023-05-16T14:26:37;2.50;;;1.77;;
5937;SDS011;2994;51.220;4.412;2023-05-16T14:29:08;2.47;;;0.90;;
5937;SDS011;2994;51.220;4.412;2023-05-16T14:31:39;5.10;;;1.30;;
5937;SDS011;2994;51.220;4.412;2023-05-16T14:34:08;2.60;;;1.30;;
5937;SDS011;2994;51.220;4.412;2023-05-16T14:36:33;3.03;;;1.50;;
5937;SDS011;2994;51.220;4.412;2023-05-16T14:38:59;2.77;;;1.00;;
5937;SDS011;2994;51.220;4.412;2023-05-16T14:41:24;4.20;;;1.77;;
5937;SDS011;2994;51.220;4.412;2023-05-16T14:43:50;1.83;;;1.23;;
5937;SDS011;2994;51.220;4.412;2023-05-16T14:46:16;1.90;;;1.00;;
5937;SDS011;2994;51.220;4.412;2023-05-16T14:48:41;3.20;;;1.20;;
5937;SDS011;2994;51.220;4.412;2023-05-16T14:51:07;2.40;;;1.77;;
5937;SDS011;2994;51.220;4.412;2023-05-16T14:53:32;1.57;;;1.30;;
5937;SDS011;2994;51.220;4.412;2023-05-16T14:55:57;3.47;;;1.30;;
5937;SDS011;2994;51.220;4.412;2023-05-16T14:58:23;2.60;;;1.33;;
5937;SDS011;2994;51.220;4.412;2023-05-16T15:00:49;2.27;;;1.20;;
5937;SDS011;2994;51.220;4.412;2023-05-16T15:03:15;3.40;;;1.27;;
5937;SDS011;2994;51.220;4.412;2023-05-16T15:05:41;2.50;;;1.40;;
5937;SDS011;2994;51.220;4.412;2023-05-16T15:08:08;2.30;;;1.33;;
5937;SDS011;2994;51.220;4.412;2023-05-16T15:10:33;2.97;;;1.30;;
5937;SDS011;2994;51.220;4.412;2023-05-16T15:12:59;4.20;;;1.60;;
5937;SDS011;2994;51.220;4.412;2023-05-16T15:15:25;2.40;;;1.17;;
5937;SDS011;2994;51.220;4.412;2023-05-16T15:17:50;1.20;;;1.10;;
5937;SDS011;2994;51.220;4.412;2023-05-16T15:20:17;6.03;;;2.00;;
5937;SDS011;2994;51.220;4.412;2023-05-16T15:22:43;3.53;;;1.00;;
5937;SDS011;2994;51.220;4.412;2023-05-16T15:25:09;2.47;;;1.37;;
5937;SDS011;2994;51.220;4.412;2023-05-16T15:27:35;4.20;;;1.50;;
5937;SDS011;2994;51.220;4.412;2023-05-16T15:30:00;4.17;;;1.30;;
5937;SDS011;2994;51.220;4.412;2023-05-16T15:32:26;3.67;;;1.80;;
5937;SDS011;2994;51.220;4.412;2023-05-16T15:34:51;3.17;;;1.40;;
5937;SDS011;2994;51.220;4.412;2023-05-16T15:37:17;4.10;;;1.43;;
5937;SDS011;2994;51.220;4.412;2023-05-16T15:39:42;2.13;;;1.00;;
5937;SDS011;2994;51.220;4.412;2023-05-16T15:42:08;3.57;;;1.57;;
5937;SDS011;2994;51.220;4.412;2023-05-16T15:44:35;2.47;;;1.17;;
5937;SDS011;2994;51.220;4.412;2023-05-16T15:47:00;2.60;;;1.40;;
5937;SDS011;2994;51.220;4.412;2023-05-16T15:49:26;2.53;;;1.10;;
5937;SDS011;2994;51.220;4.412;2023-05-16T15:51:52;3.63;;;1.67;;